sensor_id;sensor_type;location;lat;lon;timestamp;temperature;humidity
13440;DHT22;6792;57.698;11.946;2024-03-25T00:01:42;13.20;51.80
13440;DHT22;6792;57.698;11.946;2024-03-25T00:04:12;13.20;51.10
13440;DHT22;6792;57.698;11.946;2024-03-25T00:06:42;13.20;51.70
13440;DHT22;6792;57.698;11.946;2024-03-25T00:09:18;13.10;51.70
13440;DHT22;6792;57.698;11.946;2024-03-25T00:11:59;13.10;51.70
13440;DHT22;6792;57.698;11.946;2024-03-25T00:14:37;13.00;51.80
13440;DHT22;6792;57.698;11.946;2024-03-25T00:20:06;13.00;51.40
13440;DHT22;6792;57.698;11.946;2024-03-25T00:22:41;12.90;51.30
13440;DHT22;6792;57.698;11.946;2024-03-25T00:25:21;13.00;52.00
13440;DHT22;6792;57.698;11.946;2024-03-25T00:28:03;13.00;51.90
13440;DHT22;6792;57.698;11.946;2024-03-25T00:30:39;13.00;52.10
13440;DHT22;6792;57.698;11.946;2024-03-25T00:33:26;14.00;51.70
13440;DHT22;6792;57.698;11.946;2024-03-25T00:36:02;13.00;51.80
13440;DHT22;6792;57.698;11.946;2024-03-25T00:38:39;12.90;51.80
13440;DHT22;6792;57.698;11.946;2024-03-25T00:41:10;12.90;51.20
13440;DHT22;6792;57.698;11.946;2024-03-25T00:43:51;12.90;51.70
13440;DHT22;6792;57.698;11.946;2024-03-25T00:49:39;12.90;51.60
13440;DHT22;6792;57.698;11.946;2024-03-25T00:52:11;13.00;51.60
13440;DHT22;6792;57.698;11.946;2024-03-25T00:54:41;12.90;50.80
13440;DHT22;6792;57.698;11.946;2024-03-25T00:57:15;12.90;50.80
13440;DHT22;6792;57.698;11.946;2024-03-25T00:59:54;12.90;51.40
13440;DHT22;6792;57.698;11.946;2024-03-25T01:02:31;12.90;51.30
13440;DHT22;6792;57.698;11.946;2024-03-25T01:05:14;12.90;51.30
13440;DHT22;6792;57.698;11.946;2024-03-25T01:07:51;12.90;51.20
13440;DHT22;6792;57.698;11.946;2024-03-25T01:10:50;12.90;51.20
13440;DHT22;6792;57.698;11.946;2024-03-25T01:13:49;12.90;51.20
13440;DHT22;6792;57.698;11.946;2024-03-25T01:16:36;12.90;50.60
13440;DHT22;6792;57.698;11.946;2024-03-25T01:32:47;12.70;50.60
13440;DHT22;6792;57.698;11.946;2024-03-25T01:38:35;12.80;51.20
13440;DHT22;6792;57.698;11.946;2024-03-25T02:01:05;12.70;50.80
13440;DHT22;6792;57.698;11.946;2024-03-25T02:03:55;12.70;50.80
13440;DHT22;6792;57.698;11.946;2024-03-25T02:10:04;12.80;50.60
13440;DHT22;6792;57.698;11.946;2024-03-25T02:13:04;12.80;51.20
13440;DHT22;6792;57.698;11.946;2024-03-25T02:15:44;12.80;51.20
13440;DHT22;6792;57.698;11.946;2024-03-25T02:18:36;12.80;51.10
13440;DHT22;6792;57.698;11.946;2024-03-25T02:21:23;12.80;51.10
13440;DHT22;6792;57.698;11.946;2024-03-25T02:23:58;12.80;51.10
13440;DHT22;6792;57.698;11.946;2024-03-25T02:26:31;12.80;51.10
13440;DHT22;6792;57.698;11.946;2024-03-25T02:29:02;12.80;50.60
13440;DHT22;6792;57.698;11.946;2024-03-25T02:31:32;12.80;50.60
13440;DHT22;6792;57.698;11.946;2024-03-25T02:34:17;12.80;51.10
13440;DHT22;6792;57.698;11.946;2024-03-25T02:36:53;12.90;51.10
13440;DHT22;6792;57.698;11.946;2024-03-25T02:45:22;12.90;50.60
13440;DHT22;6792;57.698;11.946;2024-03-25T02:47:59;12.90;51.10
13440;DHT22;6792;57.698;11.946;2024-03-25T02:50:30;12.90;51.10
13440;DHT22;6792;57.698;11.946;2024-03-25T02:53:04;12.90;50.50
13440;DHT22;6792;57.698;11.946;2024-03-25T02:55:36;12.90;50.40
13440;DHT22;6792;57.698;11.946;2024-03-25T02:58:25;12.90;51.00
13440;DHT22;6792;57.698;11.946;2024-03-25T03:00:56;12.90;50.90
13440;DHT22;6792;57.698;11.946;2024-03-25T03:03:29;12.90;51.00
13440;DHT22;6792;57.698;11.946;2024-03-25T03:06:03;12.90;51.00
13440;DHT22;6792;57.698;11.946;2024-03-25T03:08:37;12.90;51.10
13440;DHT22;6792;57.698;11.946;2024-03-25T03:11:21;12.80;50.50
13440;DHT22;6792;57.698;11.946;2024-03-25T03:13:55;12.80;51.20
13440;DHT22;6792;57.698;11.946;2024-03-25T03:19:29;12.80;51.20
13440;DHT22;6792;57.698;11.946;2024-03-25T03:22:06;12.80;51.20
13440;DHT22;6792;57.698;11.946;2024-03-25T03:24:51;12.80;51.30
13440;DHT22;6792;57.698;11.946;2024-03-25T03:27:47;12.80;51.20
13440;DHT22;6792;57.698;11.946;2024-03-25T03:36:37;12.70;50.80
13440;DHT22;6792;57.698;11.946;2024-03-25T03:39:12;12.70;50.90
13440;DHT22;6792;57.698;11.946;2024-03-25T03:41:45;12.70;50.90
13440;DHT22;6792;57.698;11.946;2024-03-25T03:44:28;12.70;50.90
13440;DHT22;6792;57.698;11.946;2024-03-25T03:50:00;12.70;50.90
13440;DHT22;6792;57.698;11.946;2024-03-25T03:52:49;12.80;52.10
13440;DHT22;6792;57.698;11.946;2024-03-25T03:55:23;12.80;51.40
13440;DHT22;6792;57.698;11.946;2024-03-25T03:57:54;12.70;51.50
13440;DHT22;6792;57.698;11.946;2024-03-25T04:00:28;12.70;51.60
13440;DHT22;6792;57.698;11.946;2024-03-25T04:02:58;12.70;51.50
13440;DHT22;6792;57.698;11.946;2024-03-25T04:05:40;12.70;51.60
13440;DHT22;6792;57.698;11.946;2024-03-25T04:08:14;12.70;51.60
13440;DHT22;6792;57.698;11.946;2024-03-25T04:11:01;12.70;51.70
13440;DHT22;6792;57.698;11.946;2024-03-25T04:13:39;12.70;51.10
13440;DHT22;6792;57.698;11.946;2024-03-25T04:16:11;12.70;51.70
13440;DHT22;6792;57.698;11.946;2024-03-25T04:22:28;12.70;51.20
13440;DHT22;6792;57.698;11.946;2024-03-25T04:28:35;12.60;51.30
13440;DHT22;6792;57.698;11.946;2024-03-25T04:31:42;12.60;51.20
13440;DHT22;6792;57.698;11.946;2024-03-25T04:37:49;12.60;51.20
13440;DHT22;6792;57.698;11.946;2024-03-25T04:40:37;12.60;51.20
13440;DHT22;6792;57.698;11.946;2024-03-25T04:46:56;12.70;51.70
13440;DHT22;6792;57.698;11.946;2024-03-25T04:49:44;12.40;51.00
13440;DHT22;6792;57.698;11.946;2024-03-25T04:52:22;12.60;51.80
13440;DHT22;6792;57.698;11.946;2024-03-25T04:55:00;12.60;51.70
13440;DHT22;6792;57.698;11.946;2024-03-25T04:57:46;12.60;51.10
13440;DHT22;6792;57.698;11.946;2024-03-25T05:00:39;12.60;51.80
13440;DHT22;6792;57.698;11.946;2024-03-25T05:03:12;12.60;51.70
13440;DHT22;6792;57.698;11.946;2024-03-25T05:05:50;12.60;51.60
13440;DHT22;6792;57.698;11.946;2024-03-25T05:08:21;12.60;51.00
13440;DHT22;6792;57.698;11.946;2024-03-25T05:10:52;12.70;51.60
13440;DHT22;6792;57.698;11.946;2024-03-25T05:13:21;12.70;51.50
13440;DHT22;6792;57.698;11.946;2024-03-25T05:15:53;12.60;51.40
13440;DHT22;6792;57.698;11.946;2024-03-25T05:18:23;12.60;51.40
13440;DHT22;6792;57.698;11.946;2024-03-25T05:20:52;12.60;51.40
13440;DHT22;6792;57.698;11.946;2024-03-25T05:23:21;12.60;51.30
13440;DHT22;6792;57.698;11.946;2024-03-25T05:25:51;12.50;51.30
13440;DHT22;6792;57.698;11.946;2024-03-25T05:28:20;12.50;51.30
13440;DHT22;6792;57.698;11.946;2024-03-25T05:30:49;12.40;51.40
13440;DHT22;6792;57.698;11.946;2024-03-25T05:33:19;12.40;51.30
13440;DHT22;6792;57.698;11.946;2024-03-25T05:35:48;12.40;51.30
13440;DHT22;6792;57.698;11.946;2024-03-25T05:38:17;12.40;51.90
13440;DHT22;6792;57.698;11.946;2024-03-25T05:40:47;12.40;51.20
13440;DHT22;6792;57.698;11.946;2024-03-25T05:43:16;12.50;51.20
13440;DHT22;6792;57.698;11.946;2024-03-25T05:45:51;12.50;51.10
13440;DHT22;6792;57.698;11.946;2024-03-25T05:48:30;12.50;51.20
13440;DHT22;6792;57.698;11.946;2024-03-25T05:51:01;12.50;50.90
13440;DHT22;6792;57.698;11.946;2024-03-25T05:53:30;12.50;50.90
13440;DHT22;6792;57.698;11.946;2024-03-25T05:56:00;12.60;50.80
13440;DHT22;6792;57.698;11.946;2024-03-25T05:58:29;12.60;50.80
13440;DHT22;6792;57.698;11.946;2024-03-25T06:00:58;12.60;50.70
13440;DHT22;6792;57.698;11.946;2024-03-25T06:03:29;12.50;50.70
13440;DHT22;6792;57.698;11.946;2024-03-25T06:05:58;12.60;50.70
13440;DHT22;6792;57.698;11.946;2024-03-25T06:08:29;12.60;50.70
13440;DHT22;6792;57.698;11.946;2024-03-25T06:11:02;12.60;50.70
13440;DHT22;6792;57.698;11.946;2024-03-25T06:13:32;12.60;50.10
13440;DHT22;6792;57.698;11.946;2024-03-25T06:16:03;12.60;50.10
13440;DHT22;6792;57.698;11.946;2024-03-25T06:18:32;12.50;50.60
13440;DHT22;6792;57.698;11.946;2024-03-25T06:21:02;12.60;50.70
13440;DHT22;6792;57.698;11.946;2024-03-25T06:23:31;12.60;50.70
13440;DHT22;6792;57.698;11.946;2024-03-25T06:26:00;12.60;50.60
13440;DHT22;6792;57.698;11.946;2024-03-25T06:31:08;12.50;50.00
13440;DHT22;6792;57.698;11.946;2024-03-25T06:33:54;12.50;50.60
13440;DHT22;6792;57.698;11.946;2024-03-25T06:36:42;12.40;50.10
13440;DHT22;6792;57.698;11.946;2024-03-25T06:39:11;12.30;50.90
13440;DHT22;6792;57.698;11.946;2024-03-25T06:41:40;12.30;50.80
13440;DHT22;6792;57.698;11.946;2024-03-25T06:44:10;12.30;50.70
13440;DHT22;6792;57.698;11.946;2024-03-25T06:46:42;12.30;50.80
13440;DHT22;6792;57.698;11.946;2024-03-25T06:49:11;12.30;50.70
13440;DHT22;6792;57.698;11.946;2024-03-25T06:51:40;12.30;50.70
13440;DHT22;6792;57.698;11.946;2024-03-25T06:54:10;12.30;50.70
13440;DHT22;6792;57.698;11.946;2024-03-25T06:56:39;12.30;50.70
13440;DHT22;6792;57.698;11.946;2024-03-25T06:59:11;12.30;50.70
13440;DHT22;6792;57.698;11.946;2024-03-25T07:01:40;12.20;50.10
13440;DHT22;6792;57.698;11.946;2024-03-25T07:04:11;12.30;50.70
13440;DHT22;6792;57.698;11.946;2024-03-25T07:06:41;12.30;50.70
13440;DHT22;6792;57.698;11.946;2024-03-25T07:09:10;12.30;50.70
13440;DHT22;6792;57.698;11.946;2024-03-25T07:11:42;12.30;50.70
13440;DHT22;6792;57.698;11.946;2024-03-25T07:14:13;12.40;50.60
13440;DHT22;6792;57.698;11.946;2024-03-25T07:16:42;12.40;50.60
13440;DHT22;6792;57.698;11.946;2024-03-25T07:19:11;12.40;50.60
13440;DHT22;6792;57.698;11.946;2024-03-25T07:21:40;12.40;50.60
13440;DHT22;6792;57.698;11.946;2024-03-25T07:24:10;12.50;50.00
13440;DHT22;6792;57.698;11.946;2024-03-25T07:26:43;12.50;50.50
13440;DHT22;6792;57.698;11.946;2024-03-25T07:29:12;12.50;49.90
13440;DHT22;6792;57.698;11.946;2024-03-25T07:31:45;12.60;50.40
13440;DHT22;6792;57.698;11.946;2024-03-25T07:34:14;12.50;49.70
13440;DHT22;6792;57.698;11.946;2024-03-25T07:36:43;12.60;50.30
13440;DHT22;6792;57.698;11.946;2024-03-25T07:39:12;12.60;50.30
13440;DHT22;6792;57.698;11.946;2024-03-25T07:41:42;12.60;49.80
13440;DHT22;6792;57.698;11.946;2024-03-25T07:44:11;12.60;50.30
13440;DHT22;6792;57.698;11.946;2024-03-25T07:46:42;12.70;50.30
13440;DHT22;6792;57.698;11.946;2024-03-25T07:49:20;12.70;49.70
13440;DHT22;6792;57.698;11.946;2024-03-25T07:51:50;12.70;50.20
13440;DHT22;6792;57.698;11.946;2024-03-25T07:54:20;12.70;50.10
13440;DHT22;6792;57.698;11.946;2024-03-25T07:56:51;12.80;50.30
13440;DHT22;6792;57.698;11.946;2024-03-25T07:59:22;12.80;50.10
13440;DHT22;6792;57.698;11.946;2024-03-25T08:01:51;12.80;50.10
13440;DHT22;6792;57.698;11.946;2024-03-25T08:04:24;12.80;50.60
13440;DHT22;6792;57.698;11.946;2024-03-25T08:06:53;12.80;50.00
13440;DHT22;6792;57.698;11.946;2024-03-25T08:09:23;12.80;50.10
13440;DHT22;6792;57.698;11.946;2024-03-25T08:11:57;12.70;50.00
13440;DHT22;6792;57.698;11.946;2024-03-25T08:14:28;12.70;50.00
13440;DHT22;6792;57.698;11.946;2024-03-25T08:16:58;12.80;50.10
13440;DHT22;6792;57.698;11.946;2024-03-25T08:19:30;12.70;50.00
13440;DHT22;6792;57.698;11.946;2024-03-25T08:22:00;12.70;50.00
13440;DHT22;6792;57.698;11.946;2024-03-25T08:24:29;12.70;50.10
13440;DHT22;6792;57.698;11.946;2024-03-25T08:27:20;12.70;49.40
13440;DHT22;6792;57.698;11.946;2024-03-25T08:29:59;12.70;50.00
13440;DHT22;6792;57.698;11.946;2024-03-25T08:32:31;12.70;49.50
13440;DHT22;6792;57.698;11.946;2024-03-25T08:35:07;12.80;50.10
13440;DHT22;6792;57.698;11.946;2024-03-25T08:37:36;12.80;50.00
13440;DHT22;6792;57.698;11.946;2024-03-25T08:40:08;12.90;50.00
13440;DHT22;6792;57.698;11.946;2024-03-25T08:42:38;12.90;49.40
13440;DHT22;6792;57.698;11.946;2024-03-25T08:45:15;13.00;49.90
13440;DHT22;6792;57.698;11.946;2024-03-25T08:47:44;13.00;49.80
13440;DHT22;6792;57.698;11.946;2024-03-25T08:50:18;13.00;49.30
13440;DHT22;6792;57.698;11.946;2024-03-25T08:52:47;13.00;49.10
13440;DHT22;6792;57.698;11.946;2024-03-25T08:55:16;13.00;49.70
13440;DHT22;6792;57.698;11.946;2024-03-25T08:57:46;13.10;49.70
13440;DHT22;6792;57.698;11.946;2024-03-25T09:00:17;13.00;49.60
13440;DHT22;6792;57.698;11.946;2024-03-25T09:02:46;13.00;49.70
13440;DHT22;6792;57.698;11.946;2024-03-25T09:05:16;13.10;49.70
13440;DHT22;6792;57.698;11.946;2024-03-25T09:07:49;13.10;49.70
13440;DHT22;6792;57.698;11.946;2024-03-25T09:12:58;13.10;49.00
13440;DHT22;6792;57.698;11.946;2024-03-25T09:15:31;13.20;49.50
13440;DHT22;6792;57.698;11.946;2024-03-25T09:18:00;13.20;49.50
13440;DHT22;6792;57.698;11.946;2024-03-25T09:20:30;13.20;49.40
13440;DHT22;6792;57.698;11.946;2024-03-25T09:23:02;13.20;49.90
13440;DHT22;6792;57.698;11.946;2024-03-25T09:25:32;13.20;48.80
13440;DHT22;6792;57.698;11.946;2024-03-25T09:28:04;13.30;48.80
13440;DHT22;6792;57.698;11.946;2024-03-25T09:30:37;13.30;48.70
13440;DHT22;6792;57.698;11.946;2024-03-25T09:33:06;13.30;48.70
13440;DHT22;6792;57.698;11.946;2024-03-25T09:35:37;13.40;49.20
13440;DHT22;6792;57.698;11.946;2024-03-25T09:38:06;13.40;49.30
13440;DHT22;6792;57.698;11.946;2024-03-25T09:40:39;13.40;49.10
13440;DHT22;6792;57.698;11.946;2024-03-25T09:43:12;13.40;48.50
13440;DHT22;6792;57.698;11.946;2024-03-25T09:48:20;13.40;48.50
13440;DHT22;6792;57.698;11.946;2024-03-25T09:50:50;13.40;48.40
13440;DHT22;6792;57.698;11.946;2024-03-25T09:53:24;13.40;49.00
13440;DHT22;6792;57.698;11.946;2024-03-25T09:55:53;13.50;49.00
13440;DHT22;6792;57.698;11.946;2024-03-25T09:58:24;13.50;48.90
13440;DHT22;6792;57.698;11.946;2024-03-25T10:00:54;13.40;48.80
13440;DHT22;6792;57.698;11.946;2024-03-25T10:03:26;13.50;48.80
13440;DHT22;6792;57.698;11.946;2024-03-25T10:05:55;13.50;48.80
13440;DHT22;6792;57.698;11.946;2024-03-25T10:11:03;13.50;48.10
13440;DHT22;6792;57.698;11.946;2024-03-25T10:13:32;13.50;48.70
13440;DHT22;6792;57.698;11.946;2024-03-25T10:16:02;13.50;48.60
13440;DHT22;6792;57.698;11.946;2024-03-25T10:18:31;13.40;48.60
13440;DHT22;6792;57.698;11.946;2024-03-25T10:21:01;13.40;48.20
13440;DHT22;6792;57.698;11.946;2024-03-25T10:23:32;13.40;48.20
13440;DHT22;6792;57.698;11.946;2024-03-25T10:28:41;13.40;48.20
13440;DHT22;6792;57.698;11.946;2024-03-25T10:31:11;13.40;48.80
13440;DHT22;6792;57.698;11.946;2024-03-25T10:33:40;13.50;48.80
13440;DHT22;6792;57.698;11.946;2024-03-25T10:36:10;13.50;48.80
13440;DHT22;6792;57.698;11.946;2024-03-25T10:38:41;13.60;48.80
13440;DHT22;6792;57.698;11.946;2024-03-25T10:41:13;13.60;49.30
13440;DHT22;6792;57.698;11.946;2024-03-25T10:43:50;13.60;48.70
13440;DHT22;6792;57.698;11.946;2024-03-25T10:46:22;13.60;48.70
13440;DHT22;6792;57.698;11.946;2024-03-25T10:51:36;13.70;48.10
13440;DHT22;6792;57.698;11.946;2024-03-25T10:54:08;13.70;48.60
13440;DHT22;6792;57.698;11.946;2024-03-25T10:56:37;13.60;48.50
13440;DHT22;6792;57.698;11.946;2024-03-25T10:59:09;13.60;48.50
13440;DHT22;6792;57.698;11.946;2024-03-25T11:01:43;13.60;48.50
13440;DHT22;6792;57.698;11.946;2024-03-25T11:04:22;13.70;48.60
13440;DHT22;6792;57.698;11.946;2024-03-25T11:06:52;13.60;47.90
13440;DHT22;6792;57.698;11.946;2024-03-25T11:09:25;13.70;48.50
13440;DHT22;6792;57.698;11.946;2024-03-25T11:11:59;13.70;48.50
13440;DHT22;6792;57.698;11.946;2024-03-25T11:14:30;13.70;48.60
13440;DHT22;6792;57.698;11.946;2024-03-25T11:17:00;13.70;48.50
13440;DHT22;6792;57.698;11.946;2024-03-25T11:19:48;13.80;48.60
13440;DHT22;6792;57.698;11.946;2024-03-25T11:22:24;13.80;48.40
13440;DHT22;6792;57.698;11.946;2024-03-25T11:24:50;13.80;48.30
13440;DHT22;6792;57.698;11.946;2024-03-25T11:27:25;13.80;48.30
13440;DHT22;6792;57.698;11.946;2024-03-25T11:29:54;13.80;48.30
13440;DHT22;6792;57.698;11.946;2024-03-25T11:32:23;13.70;48.20
13440;DHT22;6792;57.698;11.946;2024-03-25T11:34:55;13.70;47.70
13440;DHT22;6792;57.698;11.946;2024-03-25T11:37:25;13.80;47.70
13440;DHT22;6792;57.698;11.946;2024-03-25T11:40:03;13.80;48.20
13440;DHT22;6792;57.698;11.946;2024-03-25T11:42:39;13.90;48.30
13440;DHT22;6792;57.698;11.946;2024-03-25T11:45:16;13.90;48.10
13440;DHT22;6792;57.698;11.946;2024-03-25T11:47:47;13.90;48.00
13440;DHT22;6792;57.698;11.946;2024-03-25T11:50:34;13.90;47.90
13440;DHT22;6792;57.698;11.946;2024-03-25T11:53:04;13.90;47.30
13440;DHT22;6792;57.698;11.946;2024-03-25T11:55:39;13.90;47.80
13440;DHT22;6792;57.698;11.946;2024-03-25T11:58:13;13.90;47.80
13440;DHT22;6792;57.698;11.946;2024-03-25T12:00:46;13.90;47.80
13440;DHT22;6792;57.698;11.946;2024-03-25T12:03:17;13.80;47.70
13440;DHT22;6792;57.698;11.946;2024-03-25T12:05:50;13.90;47.80
13440;DHT22;6792;57.698;11.946;2024-03-25T12:08:19;13.90;47.80
13440;DHT22;6792;57.698;11.946;2024-03-25T12:11:01;13.90;47.80
13440;DHT22;6792;57.698;11.946;2024-03-25T12:13:46;14.00;47.20
13440;DHT22;6792;57.698;11.946;2024-03-25T12:16:16;14.00;47.80
13440;DHT22;6792;57.698;11.946;2024-03-25T12:18:52;14.00;47.70
13440;DHT22;6792;57.698;11.946;2024-03-25T12:21:21;14.00;47.60
13440;DHT22;6792;57.698;11.946;2024-03-25T12:23:55;14.00;47.50
13440;DHT22;6792;57.698;11.946;2024-03-25T12:26:26;14.00;47.50
13440;DHT22;6792;57.698;11.946;2024-03-25T12:28:59;14.10;47.00
13440;DHT22;6792;57.698;11.946;2024-03-25T12:31:29;14.10;47.40
13440;DHT22;6792;57.698;11.946;2024-03-25T12:34:01;14.10;47.40
13440;DHT22;6792;57.698;11.946;2024-03-25T12:36:31;14.10;47.30
13440;DHT22;6792;57.698;11.946;2024-03-25T12:39:01;14.10;47.30
13440;DHT22;6792;57.698;11.946;2024-03-25T12:41:31;14.10;46.60
13440;DHT22;6792;57.698;11.946;2024-03-25T12:44:01;14.10;47.20
13440;DHT22;6792;57.698;11.946;2024-03-25T12:46:30;14.10;47.20
13440;DHT22;6792;57.698;11.946;2024-03-25T12:49:00;14.10;47.10
13440;DHT22;6792;57.698;11.946;2024-03-25T12:51:29;14.20;47.20
13440;DHT22;6792;57.698;11.946;2024-03-25T12:53:59;14.20;47.10
13440;DHT22;6792;57.698;11.946;2024-03-25T12:56:28;14.20;47.00
13440;DHT22;6792;57.698;11.946;2024-03-25T12:58:57;14.20;47.00
13440;DHT22;6792;57.698;11.946;2024-03-25T13:01:26;14.20;47.00
13440;DHT22;6792;57.698;11.946;2024-03-25T13:03:55;14.20;46.80
13440;DHT22;6792;57.698;11.946;2024-03-25T13:06:24;14.30;46.80
13440;DHT22;6792;57.698;11.946;2024-03-25T13:08:54;14.30;46.80
13440;DHT22;6792;57.698;11.946;2024-03-25T13:11:24;14.30;46.80
13440;DHT22;6792;57.698;11.946;2024-03-25T13:13:53;14.30;46.90
13440;DHT22;6792;57.698;11.946;2024-03-25T13:16:23;14.30;46.90
13440;DHT22;6792;57.698;11.946;2024-03-25T13:18:52;14.30;46.90
13440;DHT22;6792;57.698;11.946;2024-03-25T13:21:22;14.30;46.90
13440;DHT22;6792;57.698;11.946;2024-03-25T13:23:54;14.30;47.00
13440;DHT22;6792;57.698;11.946;2024-03-25T13:26:23;14.30;47.00
13440;DHT22;6792;57.698;11.946;2024-03-25T13:28:54;14.40;47.20
13440;DHT22;6792;57.698;11.946;2024-03-25T13:31:23;14.40;47.30
13440;DHT22;6792;57.698;11.946;2024-03-25T13:33:52;14.40;47.20
13440;DHT22;6792;57.698;11.946;2024-03-25T13:36:22;14.40;46.60
13440;DHT22;6792;57.698;11.946;2024-03-25T13:38:51;14.40;47.20
13440;DHT22;6792;57.698;11.946;2024-03-25T13:41:21;14.40;47.20
13440;DHT22;6792;57.698;11.946;2024-03-25T13:43:51;14.40;47.40
13440;DHT22;6792;57.698;11.946;2024-03-25T13:46:21;14.40;47.20
13440;DHT22;6792;57.698;11.946;2024-03-25T13:48:50;14.40;47.20
13440;DHT22;6792;57.698;11.946;2024-03-25T13:51:20;14.40;47.10
13440;DHT22;6792;57.698;11.946;2024-03-25T13:53:49;14.40;47.10
13440;DHT22;6792;57.698;11.946;2024-03-25T13:56:20;14.40;47.10
13440;DHT22;6792;57.698;11.946;2024-03-25T13:58:50;14.50;47.10
13440;DHT22;6792;57.698;11.946;2024-03-25T14:01:19;14.50;47.10
13440;DHT22;6792;57.698;11.946;2024-03-25T14:03:52;14.50;47.00
13440;DHT22;6792;57.698;11.946;2024-03-25T14:09:03;14.50;46.30
13440;DHT22;6792;57.698;11.946;2024-03-25T14:11:33;14.60;46.90
13440;DHT22;6792;57.698;11.946;2024-03-25T14:14:06;14.60;46.80
13440;DHT22;6792;57.698;11.946;2024-03-25T14:16:35;14.60;46.80
13440;DHT22;6792;57.698;11.946;2024-03-25T14:19:07;14.60;46.70
13440;DHT22;6792;57.698;11.946;2024-03-25T14:21:47;14.60;46.70
13440;DHT22;6792;57.698;11.946;2024-03-25T14:24:18;14.60;46.20
13440;DHT22;6792;57.698;11.946;2024-03-25T14:29:31;14.70;46.50
13440;DHT22;6792;57.698;11.946;2024-03-25T14:32:00;14.80;46.60
13440;DHT22;6792;57.698;11.946;2024-03-25T14:34:29;14.80;46.60
13440;DHT22;6792;57.698;11.946;2024-03-25T14:37:00;14.90;46.50
13440;DHT22;6792;57.698;11.946;2024-03-25T14:39:31;14.90;46.40
13440;DHT22;6792;57.698;11.946;2024-03-25T14:42:00;14.90;46.30
13440;DHT22;6792;57.698;11.946;2024-03-25T14:44:29;14.90;46.30
13440;DHT22;6792;57.698;11.946;2024-03-25T14:46:59;14.90;46.30
13440;DHT22;6792;57.698;11.946;2024-03-25T14:49:28;14.80;46.30
13440;DHT22;6792;57.698;11.946;2024-03-25T14:51:57;14.80;46.30
13440;DHT22;6792;57.698;11.946;2024-03-25T14:54:34;14.80;45.80
13440;DHT22;6792;57.698;11.946;2024-03-25T14:57:04;14.80;45.80
13440;DHT22;6792;57.698;11.946;2024-03-25T15:02:03;14.70;45.90
13440;DHT22;6792;57.698;11.946;2024-03-25T15:04:34;14.60;45.90
13440;DHT22;6792;57.698;11.946;2024-03-25T15:07:04;14.60;46.70
13440;DHT22;6792;57.698;11.946;2024-03-25T15:09:34;14.60;46.20
13440;DHT22;6792;57.698;11.946;2024-03-25T15:12:07;14.60;46.80
13440;DHT22;6792;57.698;11.946;2024-03-25T15:14:37;14.60;46.90
13440;DHT22;6792;57.698;11.946;2024-03-25T15:17:06;14.60;46.40
13440;DHT22;6792;57.698;11.946;2024-03-25T15:22:04;14.60;46.50
13440;DHT22;6792;57.698;11.946;2024-03-25T15:27:02;14.50;46.60
13440;DHT22;6792;57.698;11.946;2024-03-25T15:29:31;14.50;46.70
13440;DHT22;6792;57.698;11.946;2024-03-25T15:32:02;14.50;46.70
13440;DHT22;6792;57.698;11.946;2024-03-25T15:34:32;14.50;46.80
13440;DHT22;6792;57.698;11.946;2024-03-25T15:37:04;14.50;46.90
13440;DHT22;6792;57.698;11.946;2024-03-25T15:39:40;14.50;47.50
13440;DHT22;6792;57.698;11.946;2024-03-25T15:42:10;14.50;47.40
13440;DHT22;6792;57.698;11.946;2024-03-25T15:44:40;14.40;47.00
13440;DHT22;6792;57.698;11.946;2024-03-25T15:47:10;14.40;47.60
13440;DHT22;6792;57.698;11.946;2024-03-25T15:49:44;14.40;47.70
13440;DHT22;6792;57.698;11.946;2024-03-25T15:52:11;14.40;47.70
13440;DHT22;6792;57.698;11.946;2024-03-25T15:54:41;14.40;48.30
13440;DHT22;6792;57.698;11.946;2024-03-25T15:57:10;14.30;47.20
13440;DHT22;6792;57.698;11.946;2024-03-25T15:59:39;14.40;47.20
13440;DHT22;6792;57.698;11.946;2024-03-25T16:02:09;14.40;47.80
13440;DHT22;6792;57.698;11.946;2024-03-25T16:04:38;14.40;47.80
13440;DHT22;6792;57.698;11.946;2024-03-25T16:07:07;14.40;47.70
13440;DHT22;6792;57.698;11.946;2024-03-25T16:09:36;14.40;47.70
13440;DHT22;6792;57.698;11.946;2024-03-25T16:12:06;14.30;47.70
13440;DHT22;6792;57.698;11.946;2024-03-25T16:14:35;14.30;47.80
13440;DHT22;6792;57.698;11.946;2024-03-25T16:17:05;14.40;47.90
13440;DHT22;6792;57.698;11.946;2024-03-25T16:19:34;14.40;47.90
13440;DHT22;6792;57.698;11.946;2024-03-25T16:22:03;14.40;47.30
13440;DHT22;6792;57.698;11.946;2024-03-25T16:24:33;14.40;47.90
13440;DHT22;6792;57.698;11.946;2024-03-25T16:27:06;14.40;47.30
13440;DHT22;6792;57.698;11.946;2024-03-25T16:29:39;14.40;47.90
13440;DHT22;6792;57.698;11.946;2024-03-25T16:32:09;14.40;47.80
13440;DHT22;6792;57.698;11.946;2024-03-25T16:34:43;14.40;47.90
13440;DHT22;6792;57.698;11.946;2024-03-25T16:37:14;14.40;47.80
13440;DHT22;6792;57.698;11.946;2024-03-25T16:39:44;14.40;47.70
13440;DHT22;6792;57.698;11.946;2024-03-25T16:42:13;14.40;47.90
13440;DHT22;6792;57.698;11.946;2024-03-25T16:44:43;14.40;47.50
13440;DHT22;6792;57.698;11.946;2024-03-25T16:47:12;14.50;47.50
13440;DHT22;6792;57.698;11.946;2024-03-25T16:49:43;14.50;47.40
13440;DHT22;6792;57.698;11.946;2024-03-25T16:52:14;14.50;47.30
13440;DHT22;6792;57.698;11.946;2024-03-25T16:54:44;14.50;47.20
13440;DHT22;6792;57.698;11.946;2024-03-25T16:57:13;14.40;47.10
13440;DHT22;6792;57.698;11.946;2024-03-25T16:59:45;14.40;47.10
13440;DHT22;6792;57.698;11.946;2024-03-25T17:02:15;14.40;47.10
13440;DHT22;6792;57.698;11.946;2024-03-25T17:04:46;14.40;47.10
13440;DHT22;6792;57.698;11.946;2024-03-25T17:07:15;14.40;47.20
13440;DHT22;6792;57.698;11.946;2024-03-25T17:09:47;14.40;47.10
13440;DHT22;6792;57.698;11.946;2024-03-25T17:12:17;14.30;47.10
13440;DHT22;6792;57.698;11.946;2024-03-25T17:14:47;14.30;47.10
13440;DHT22;6792;57.698;11.946;2024-03-25T17:17:16;14.30;47.20
13440;DHT22;6792;57.698;11.946;2024-03-25T17:19:46;14.30;47.20
13440;DHT22;6792;57.698;11.946;2024-03-25T17:22:15;14.30;47.20
13440;DHT22;6792;57.698;11.946;2024-03-25T17:24:46;14.20;47.20
13440;DHT22;6792;57.698;11.946;2024-03-25T17:27:16;14.20;47.30
13440;DHT22;6792;57.698;11.946;2024-03-25T17:29:48;14.20;47.30
13440;DHT22;6792;57.698;11.946;2024-03-25T17:32:18;14.20;47.40
13440;DHT22;6792;57.698;11.946;2024-03-25T17:34:48;14.20;46.90
13440;DHT22;6792;57.698;11.946;2024-03-25T17:37:17;14.20;47.40
13440;DHT22;6792;57.698;11.946;2024-03-25T17:39:48;14.20;47.50
13440;DHT22;6792;57.698;11.946;2024-03-25T17:44:55;14.10;47.00
13440;DHT22;6792;57.698;11.946;2024-03-25T17:47:24;14.10;47.60
13440;DHT22;6792;57.698;11.946;2024-03-25T17:49:53;14.00;47.60
13440;DHT22;6792;57.698;11.946;2024-03-25T17:52:23;14.00;47.60
13440;DHT22;6792;57.698;11.946;2024-03-25T17:54:54;14.00;47.60